Time;durP1;ratioP1;P1;durP2;ratioP2;P2;SDS_P1;SDS_P2;PMS_P1;PMS_P2;Temp;Humidity;BMP_temperature;BMP_pressure;BME280_temperature;BME280_humidity;BME280_pressure;Samples;Min_cycle;Max_cycle;Signal;HPM_P1;HPM_P2
2023/05/06 00:02:18;;;;;;;14.32;10.23;;;12.60;99.90;;;;;;6224425;22;20181;-66
2023/05/06 00:04:47;;;;;;;12.50;9.98;;;12.50;99.90;;;;;;6251995;22;20179;-66
2023/05/06 00:07:13;;;;;;;14.40;10.20;;;12.50;99.90;;;;;;6250592;22;20545;-66
2023/05/06 00:09:40;;;;;;;12.35;10.25;;;12.50;99.90;;;;;;6238298;22;20179;-66
2023/05/06 00:12:07;;;;;;;13.63;10.25;;;12.50;99.90;;;;;;6231898;22;20177;-66
2023/05/06 00:14:34;;;;;;;19.50;11.85;;;12.50;99.90;;;;;;6245218;22;20172;-66
2023/05/06 00:17:01;;;;;;;15.35;10.90;;;12.50;99.90;;;;;;6232034;22;20181;-66
2023/05/06 00:19:27;;;;;;;15.98;10.93;;;12.50;99.90;;;;;;6243379;22;20177;-66
2023/05/06 00:21:56;;;;;;;16.05;11.43;;;12.60;99.90;;;;;;6249834;22;20203;-66
2023/05/06 00:24:22;;;;;;;12.30;10.40;;;12.50;99.90;;;;;;6237670;22;20204;-66
2023/05/06 00:26:49;;;;;;;11.93;10.30;;;12.50;99.90;;;;;;6239269;22;20176;-66
2023/05/06 00:29:16;;;;;;;16.63;11.40;;;12.50;99.90;;;;;;6244089;22;20172;-66
2023/05/06 00:31:44;;;;;;;19.27;11.45;;;12.50;99.90;;;;;;6231455;22;20256;-66
2023/05/06 00:34:10;;;;;;;14.50;11.48;;;12.50;99.90;;;;;;6250404;22;20183;-66
2023/05/06 00:36:37;;;;;;;16.63;10.77;;;12.60;99.90;;;;;;6245478;22;20731;-66
2023/05/06 00:39:06;;;;;;;15.82;11.43;;;12.60;99.90;;;;;;6245967;22;20169;-66
2023/05/06 00:41:33;;;;;;;16.35;11.02;;;12.60;99.90;;;;;;6240658;22;20210;-66
2023/05/06 00:43:59;;;;;;;15.77;10.77;;;12.50;99.90;;;;;;6243077;22;20536;-66
2023/05/06 00:46:26;;;;;;;16.48;10.27;;;12.50;99.90;;;;;;6249054;22;20176;-66
2023/05/06 00:48:54;;;;;;;18.38;11.55;;;12.60;99.90;;;;;;6233477;22;20180;-66
2023/05/06 00:51:22;;;;;;;11.82;9.65;;;12.40;99.90;;;;;;6249553;22;20172;-66
2023/05/06 00:53:49;;;;;;;14.57;10.20;;;12.40;99.90;;;;;;6239306;22;20666;-66
2023/05/06 00:56:18;;;;;;;16.42;10.48;;;12.40;99.90;;;;;;6244696;22;20512;-66
2023/05/06 00:58:45;;;;;;;13.48;10.48;;;12.30;99.90;;;;;;6243604;22;20172;-66
2023/05/06 01:01:12;;;;;;;14.55;10.65;;;12.40;99.90;;;;;;6252672;22;20207;-66
2023/05/06 01:03:38;;;;;;;18.25;10.32;;;12.30;99.90;;;;;;6233780;22;20184;-66
2023/05/06 01:06:13;;;;;;;13.02;10.25;;;12.20;99.90;;;;;;6253791;22;20179;-66
2023/05/06 01:08:50;;;;;;;14.23;9.63;;;12.30;99.90;;;;;;6245536;22;20351;-66
2023/05/06 01:11:28;;;;;;;17.02;10.13;;;12.20;99.90;;;;;;6248638;22;20250;-66
2023/05/06 01:14:00;;;;;;;12.05;8.95;;;12.20;99.90;;;;;;6253606;22;20171;-66
2023/05/06 01:16:29;;;;;;;13.07;9.20;;;12.10;99.90;;;;;;6239769;22;20176;-66
2023/05/06 01:18:58;;;;;;;13.90;8.57;;;12.20;99.90;;;;;;6235622;22;20180;-66
2023/05/06 01:21:33;;;;;;;23.20;9.18;;;12.20;99.90;;;;;;6248366;22;20204;-66
2023/05/06 01:24:02;;;;;;;14.05;8.70;;;12.20;99.90;;;;;;6245904;22;20178;-66
2023/05/06 01:26:28;;;;;;;18.48;9.57;;;12.20;99.90;;;;;;6251006;22;20168;-66
2023/05/06 01:28:57;;;;;;;11.75;8.80;;;12.20;99.90;;;;;;6245545;22;20185;-66
2023/05/06 01:31:26;;;;;;;11.25;7.00;;;12.10;99.90;;;;;;6239563;22;20176;-66
2023/05/06 01:34:02;;;;;;;17.98;8.05;;;12.00;99.90;;;;;;6252766;22;20172;-66
2023/05/06 01:36:38;;;;;;;11.30;7.15;;;11.90;99.90;;;;;;6233311;22;20262;-66
2023/05/06 01:39:11;;;;;;;10.30;6.43;;;11.90;99.90;;;;;;6254739;22;20178;-66
2023/05/06 01:41:40;;;;;;;10.45;6.40;;;11.80;99.90;;;;;;6244778;22;20210;-67
2023/05/06 01:44:08;;;;;;;10.00;6.55;;;11.70;99.90;;;;;;6240516;22;20591;-66
2023/05/06 01:46:35;;;;;;;13.30;6.47;;;11.70;99.90;;;;;;6237125;22;20175;-66
2023/05/06 01:49:06;;;;;;;12.18;6.63;;;11.80;99.90;;;;;;6253480;22;20172;-66
2023/05/06 01:51:34;;;;;;;14.43;6.93;;;11.70;99.90;;;;;;6230432;22;20476;-66
2023/05/06 01:54:01;;;;;;;9.68;6.22;;;11.70;99.90;;;;;;6252052;22;20172;-66
2023/05/06 01:56:30;;;;;;;13.52;7.40;;;11.70;99.90;;;;;;6240474;22;20177;-66
2023/05/06 01:58:57;;;;;;;11.70;7.43;;;11.70;99.90;;;;;;6245165;22;20631;-66
2023/05/06 02:01:23;;;;;;;16.08;6.80;;;11.60;99.90;;;;;;6236539;22;20203;-67
2023/05/06 02:03:50;;;;;;;11.98;7.32;;;11.70;99.90;;;;;;6250487;22;20183;-66
2023/05/06 02:06:17;;;;;;;9.70;7.05;;;11.70;99.90;;;;;;6241546;22;21106;-67
2023/05/06 02:08:44;;;;;;;14.40;7.95;;;11.60;99.90;;;;;;6243347;22;20253;-66
2023/05/06 02:11:11;;;;;;;13.85;7.50;;;11.60;99.90;;;;;;6243510;22;20183;-66
2023/05/06 02:13:39;;;;;;;13.05;6.95;;;11.50;99.90;;;;;;6238448;22;20172;-66
2023/05/06 02:16:07;;;;;;;8.82;6.47;;;11.40;99.90;;;;;;6247679;22;20519;-66
2023/05/06 02:18:34;;;;;;;13.30;6.75;;;11.40;99.90;;;;;;6239378;22;20168;-66
2023/05/06 02:21:02;;;;;;;10.70;6.38;;;11.40;99.90;;;;;;6250660;22;20259;-66
2023/05/06 02:23:29;;;;;;;15.85;7.22;;;11.40;99.90;;;;;;6226941;22;20187;-66
2023/05/06 02:25:56;;;;;;;12.00;6.63;;;11.40;99.90;;;;;;6251088;22;20183;-66
2023/05/06 02:28:23;;;;;;;10.10;6.40;;;11.40;99.90;;;;;;6232382;22;20825;-66
2023/05/06 02:30:55;;;;;;;12.45;6.55;;;11.40;99.90;;;;;;6248358;22;20176;-66
2023/05/06 02:33:22;;;;;;;7.18;5.43;;;11.30;99.90;;;;;;6238882;22;20172;-66
2023/05/06 02:35:49;;;;;;;9.05;6.22;;;11.40;99.90;;;;;;6251467;22;20182;-66
2023/05/06 02:38:16;;;;;;;10.07;6.53;;;11.50;99.90;;;;;;6233388;22;20192;-66
2023/05/06 02:40:43;;;;;;;8.73;6.05;;;11.50;99.90;;;;;;6248373;22;20218;-66
2023/05/06 02:43:10;;;;;;;10.27;6.40;;;11.50;99.90;;;;;;6240811;22;20514;-66
2023/05/06 02:45:37;;;;;;;7.90;6.22;;;11.40;99.90;;;;;;6232046;22;20172;-66
2023/05/06 02:48:06;;;;;;;11.25;6.20;;;11.40;99.90;;;;;;6251486;22;20168;-66
2023/05/06 02:50:34;;;;;;;8.45;5.28;;;11.40;99.90;;;;;;6236259;22;20374;-66
2023/05/06 02:53:01;;;;;;;11.30;5.97;;;11.40;99.90;;;;;;6250890;22;20237;-66
2023/05/06 02:55:28;;;;;;;10.25;6.90;;;11.50;99.90;;;;;;6232405;22;20176;-66
2023/05/06 02:57:55;;;;;;;10.02;6.05;;;11.40;99.90;;;;;;6244668;22;20172;-66
2023/05/06 03:00:22;;;;;;;8.18;5.55;;;11.30;99.90;;;;;;6243292;22;20172;-66
2023/05/06 03:02:49;;;;;;;11.73;6.20;;;11.40;99.90;;;;;;6249904;22;20208;-66
2023/05/06 03:05:17;;;;;;;10.23;6.60;;;11.30;99.90;;;;;;6240339;22;20173;-66
2023/05/06 03:07:44;;;;;;;10.60;6.43;;;11.30;99.90;;;;;;6249870;22;20168;-66
2023/05/06 03:10:11;;;;;;;12.10;5.93;;;11.30;99.90;;;;;;6232957;22;20662;-66
2023/05/06 03:12:38;;;;;;;8.60;5.85;;;11.40;99.90;;;;;;6242360;22;20202;-66
2023/05/06 03:15:06;;;;;;;10.07;6.43;;;11.40;99.90;;;;;;6241714;22;20176;-66
2023/05/06 03:17:33;;;;;;;9.48;5.05;;;11.30;99.90;;;;;;6244827;22;20796;-66
2023/05/06 03:20:00;;;;;;;7.78;5.05;;;11.30;99.90;;;;;;6241772;22;20346;-66
2023/05/06 03:22:28;;;;;;;6.15;5.15;;;11.30;99.90;;;;;;6253373;22;20921;-66
2023/05/06 03:24:55;;;;;;;8.65;5.10;;;11.30;99.90;;;;;;6234129;22;20176;-66
2023/05/06 03:27:22;;;;;;;9.80;5.85;;;11.30;99.90;;;;;;6247071;22;20172;-66
2023/05/06 03:29:49;;;;;;;10.00;5.88;;;11.30;99.90;;;;;;6239828;22;20172;-66
2023/05/06 03:32:16;;;;;;;11.02;6.40;;;11.20;99.90;;;;;;6244480;22;20207;-66
2023/05/06 03:34:42;;;;;;;8.38;5.50;;;11.20;99.90;;;;;;6245252;22;20857;-66
2023/05/06 03:37:10;;;;;;;8.02;5.40;;;11.20;99.90;;;;;;6251872;22;20705;-66
2023/05/06 03:39:38;;;;;;;8.48;6.10;;;11.20;99.90;;;;;;6252019;22;20194;-66
2023/05/06 03:42:05;;;;;;;8.57;6.18;;;11.40;99.90;;;;;;6225683;22;20399;-66
2023/05/06 03:44:32;;;;;;;9.68;6.40;;;11.20;99.90;;;;;;6252369;22;20200;-66
2023/05/06 03:46:59;;;;;;;11.13;5.95;;;11.20;99.90;;;;;;6234644;22;20172;-66
2023/05/06 03:49:25;;;;;;;10.93;6.35;;;11.10;99.90;;;;;;6250698;22;20172;-66
2023/05/06 03:51:53;;;;;;;14.45;6.50;;;11.10;99.90;;;;;;6239686;22;20173;-66
2023/05/06 03:54:20;;;;;;;17.50;5.93;;;11.10;99.90;;;;;;6252712;22;20540;-66
2023/05/06 03:56:48;;;;;;;10.25;6.07;;;11.10;99.90;;;;;;6235189;22;20271;-66
2023/05/06 03:59:15;;;;;;;9.82;5.50;;;11.00;99.90;;;;;;6250994;22;20172;-66
2023/05/06 04:01:42;;;;;;;13.05;6.40;;;11.00;99.90;;;;;;6234751;22;20200;-66
2023/05/06 04:04:09;;;;;;;12.10;6.00;;;11.00;99.90;;;;;;6248732;22;20185;-66
2023/05/06 04:06:35;;;;;;;9.38;5.72;;;11.00;99.90;;;;;;6247802;22;20191;-66
2023/05/06 04:09:05;;;;;;;8.00;5.60;;;11.10;99.90;;;;;;6245357;22;20223;-66
2023/05/06 04:11:32;;;;;;;10.85;6.10;;;11.10;99.90;;;;;;6251633;22;20176;-66
2023/05/06 04:14:00;;;;;;;9.48;5.85;;;11.00;99.90;;;;;;6231438;22;20172;-66
2023/05/06 04:16:27;;;;;;;9.75;5.50;;;11.00;99.90;;;;;;6252929;22;20176;-66
2023/05/06 04:18:55;;;;;;;11.07;6.65;;;11.00;99.90;;;;;;6231755;22;20176;-66
2023/05/06 04:21:21;;;;;;;13.65;6.75;;;11.00;99.90;;;;;;6251878;22;20299;-66
2023/05/06 04:23:48;;;;;;;15.82;6.55;;;10.90;99.90;;;;;;6239370;22;20172;-66
2023/05/06 04:26:15;;;;;;;12.43;6.45;;;10.90;99.90;;;;;;6252244;22;20180;-66
2023/05/06 04:28:42;;;;;;;11.55;6.22;;;10.90;99.90;;;;;;6238386;22;20179;-66
2023/05/06 04:31:13;;;;;;;10.85;7.30;;;11.00;99.90;;;;;;6248836;22;20172;-66
2023/05/06 04:33:40;;;;;;;11.18;6.28;;;11.00;99.90;;;;;;6234609;22;20488;-66
2023/05/06 04:36:08;;;;;;;11.43;6.15;;;11.10;99.90;;;;;;6247596;22;20180;-66
2023/05/06 04:38:36;;;;;;;10.65;6.05;;;11.10;99.90;;;;;;6242389;22;20682;-66
2023/05/06 04:41:04;;;;;;;9.43;5.90;;;11.20;99.90;;;;;;6241466;22;20474;-66
2023/05/06 04:43:31;;;;;;;10.85;6.90;;;11.10;99.90;;;;;;6252546;22;20219;-66
2023/05/06 04:45:58;;;;;;;12.25;7.65;;;11.10;99.90;;;;;;6231918;22;20694;-66
2023/05/06 04:48:26;;;;;;;9.93;6.63;;;11.10;99.90;;;;;;6243727;22;20582;-66
2023/05/06 04:50:53;;;;;;;15.38;6.10;;;11.10;99.90;;;;;;6239287;22;20179;-66
2023/05/06 04:53:20;;;;;;;10.43;7.05;;;11.20;99.90;;;;;;6243626;22;20180;-66
2023/05/06 04:55:47;;;;;;;14.60;7.43;;;11.30;99.90;;;;;;6248387;22;20172;-66
2023/05/06 04:58:14;;;;;;;18.25;7.88;;;11.30;99.90;;;;;;6253406;22;20168;-66
2023/05/06 05:00:41;;;;;;;12.90;7.25;;;11.30;99.90;;;;;;6238695;22;20516;-66
2023/05/06 05:03:08;;;;;;;13.05;7.43;;;11.20;99.90;;;;;;6246382;22;20203;-66
2023/05/06 05:05:36;;;;;;;15.57;7.68;;;11.10;99.90;;;;;;6239827;22;20168;-66
2023/05/06 05:08:03;;;;;;;9.07;7.15;;;11.10;99.90;;;;;;6234395;22;20176;-66
2023/05/06 05:10:30;;;;;;;12.45;7.38;;;11.10;99.90;;;;;;6249685;22;20909;-66
2023/05/06 05:12:57;;;;;;;13.95;8.40;;;11.10;99.90;;;;;;6248662;22;20176;-66
2023/05/06 05:15:24;;;;;;;13.10;8.30;;;11.10;99.90;;;;;;6245867;22;20190;-66
2023/05/06 05:17:51;;;;;;;11.60;7.72;;;11.20;99.90;;;;;;6236460;22;20187;-66
2023/05/06 05:20:18;;;;;;;15.30;7.75;;;11.20;99.90;;;;;;6240970;22;20172;-66
2023/05/06 05:22:46;;;;;;;14.60;7.78;;;11.30;99.90;;;;;;6254287;22;20487;-66
2023/05/06 05:25:13;;;;;;;20.15;8.45;;;11.30;99.90;;;;;;6241036;22;20659;-66
2023/05/06 05:27:41;;;;;;;12.25;8.02;;;11.30;99.90;;;;;;6256154;22;20183;-66
2023/05/06 05:30:09;;;;;;;13.50;7.47;;;11.30;99.90;;;;;;6250803;22;20173;-66
2023/05/06 05:32:36;;;;;;;13.23;8.32;;;11.30;99.90;;;;;;6237322;22;20180;-66
2023/05/06 05:35:03;;;;;;;15.15;8.35;;;11.30;99.90;;;;;;6243296;22;20176;-66
2023/05/06 05:37:30;;;;;;;19.80;8.60;;;11.30;99.90;;;;;;6252658;22;20193;-66
2023/05/06 05:39:58;;;;;;;15.77;8.82;;;11.20;99.90;;;;;;6248884;22;20206;-66
2023/05/06 05:42:25;;;;;;;16.65;8.68;;;11.20;99.90;;;;;;6247758;22;20200;-66
2023/05/06 05:44:52;;;;;;;15.05;8.63;;;11.20;99.90;;;;;;6254331;22;20176;-66
2023/05/06 05:47:19;;;;;;;17.23;8.57;;;11.20;99.90;;;;;;6229680;22;21099;-66
2023/05/06 05:49:46;;;;;;;14.52;8.80;;;11.20;99.90;;;;;;6252576;22;20203;-66
2023/05/06 05:52:13;;;;;;;12.45;8.02;;;11.20;99.90;;;;;;6238356;22;20179;-66
2023/05/06 05:54:39;;;;;;;16.98;8.93;;;11.10;99.90;;;;;;6252431;22;20196;-66
2023/05/06 05:57:08;;;;;;;14.65;8.98;;;11.30;99.90;;;;;;6238382;22;20192;-66
2023/05/06 05:59:35;;;;;;;16.27;9.45;;;11.30;99.90;;;;;;6249942;22;20200;-66
2023/05/06 06:02:01;;;;;;;14.02;8.93;;;11.30;99.90;;;;;;6244594;22;20204;-66
2023/05/06 06:04:28;;;;;;;18.80;9.45;;;11.30;99.90;;;;;;6232077;22;20301;-66
2023/05/06 06:06:56;;;;;;;14.73;8.63;;;11.20;99.90;;;;;;6242765;22;20274;-66
2023/05/06 06:09:23;;;;;;;15.98;9.55;;;11.30;99.90;;;;;;6249216;22;20226;-66
2023/05/06 06:11:51;;;;;;;15.45;8.95;;;11.30;99.90;;;;;;6237061;22;20200;-66
2023/05/06 06:14:19;;;;;;;14.23;8.85;;;11.40;99.90;;;;;;6252567;22;20199;-66
2023/05/06 06:16:47;;;;;;;14.45;8.60;;;11.30;99.90;;;;;;6250935;22;20291;-66
2023/05/06 06:19:14;;;;;;;15.57;8.85;;;11.50;99.90;;;;;;6237794;22;20198;-66
2023/05/06 06:21:41;;;;;;;13.27;8.32;;;11.50;99.90;;;;;;6243856;22;20183;-66
2023/05/06 06:24:08;;;;;;;13.70;7.93;;;11.50;99.90;;;;;;6251744;22;20176;-66
2023/05/06 06:26:35;;;;;;;13.70;8.10;;;11.50;99.90;;;;;;6244172;22;20171;-66
2023/05/06 06:29:02;;;;;;;14.40;8.63;;;11.60;99.90;;;;;;6253512;22;20318;-66
2023/05/06 06:31:32;;;;;;;14.50;8.02;;;11.40;99.90;;;;;;6254085;22;20204;-66
2023/05/06 06:33:59;;;;;;;13.82;8.73;;;11.50;99.90;;;;;;6233431;22;20478;-66
2023/05/06 06:36:26;;;;;;;15.15;7.57;;;11.50;99.90;;;;;;6255048;22;20178;-66
2023/05/06 06:38:53;;;;;;;10.80;7.93;;;11.50;99.90;;;;;;6242901;22;20172;-66
2023/05/06 06:41:20;;;;;;;15.27;7.97;;;11.40;99.90;;;;;;6244680;22;20168;-66
2023/05/06 06:43:46;;;;;;;16.25;8.65;;;11.50;99.90;;;;;;6250714;22;20254;-66
2023/05/06 06:46:13;;;;;;;15.95;8.95;;;11.60;99.90;;;;;;6251286;22;20172;-66
2023/05/06 06:48:41;;;;;;;11.70;8.02;;;11.60;99.90;;;;;;6246620;22;20192;-66
2023/05/06 06:51:08;;;;;;;11.35;7.82;;;11.70;99.90;;;;;;6233358;22;20192;-66
2023/05/06 06:53:35;;;;;;;11.50;7.75;;;11.70;99.90;;;;;;6244561;22;20203;-67
2023/05/06 06:56:02;;;;;;;12.70;8.27;;;11.70;99.90;;;;;;6203403;22;20179;-67
2023/05/06 06:58:29;;;;;;;9.57;7.57;;;11.70;99.90;;;;;;6246989;22;20202;-67
2023/05/06 07:00:56;;;;;;;12.93;7.90;;;11.60;99.90;;;;;;6213404;22;21182;-67
2023/05/06 07:03:23;;;;;;;12.07;8.23;;;11.60;99.90;;;;;;6250410;22;20208;-67
2023/05/06 07:05:51;;;;;;;15.40;8.43;;;11.60;99.90;;;;;;6216373;22;20629;-66
2023/05/06 07:08:20;;;;;;;13.38;8.10;;;11.60;99.90;;;;;;6233024;22;20192;-67
2023/05/06 07:10:47;;;;;;;11.50;8.10;;;11.60;99.90;;;;;;6241531;22;20196;-67
2023/05/06 07:13:14;;;;;;;9.82;7.50;;;11.60;99.90;;;;;;6237525;22;20358;-67
2023/05/06 07:15:41;;;;;;;9.85;7.47;;;11.70;99.90;;;;;;6235378;22;20175;-68
2023/05/06 07:18:09;;;;;;;10.90;6.57;;;11.80;99.90;;;;;;6244123;22;20176;-67
2023/05/06 07:20:36;;;;;;;10.73;7.82;;;11.80;99.90;;;;;;6246973;22;20198;-68
2023/05/06 07:23:05;;;;;;;11.25;8.35;;;11.90;99.90;;;;;;6234987;22;20309;-68
2023/05/06 07:25:31;;;;;;;8.93;6.38;;;12.00;99.90;;;;;;6239649;22;20200;-68
2023/05/06 07:27:59;;;;;;;10.30;7.60;;;11.90;99.90;;;;;;6225369;22;20183;-68
2023/05/06 07:30:25;;;;;;;8.95;6.70;;;11.90;99.90;;;;;;6249027;22;20207;-67
2023/05/06 07:32:52;;;;;;;10.57;7.63;;;12.00;99.90;;;;;;6233153;22;20204;-68
2023/05/06 07:35:19;;;;;;;11.85;7.88;;;12.20;99.90;;;;;;6247266;22;20189;-67
2023/05/06 07:37:46;;;;;;;8.18;6.60;;;12.20;99.90;;;;;;6224280;22;20279;-67
2023/05/06 07:40:15;;;;;;;9.85;6.93;;;12.20;99.90;;;;;;6242606;22;20207;-67
2023/05/06 07:42:42;;;;;;;10.20;7.15;;;12.20;99.90;;;;;;6234697;22;20278;-67
2023/05/06 07:45:10;;;;;;;13.68;7.63;;;12.30;99.90;;;;;;6245431;22;21162;-66
2023/05/06 07:47:37;;;;;;;11.63;7.88;;;12.20;99.90;;;;;;6239885;22;20179;-66
2023/05/06 07:50:05;;;;;;;8.52;6.93;;;12.10;99.90;;;;;;6250706;22;20172;-66
2023/05/06 07:52:32;;;;;;;11.15;6.97;;;12.00;99.90;;;;;;6228208;22;20180;-67
2023/05/06 07:54:59;;;;;;;9.90;7.30;;;12.00;99.90;;;;;;6253702;22;20928;-67
2023/05/06 07:57:27;;;;;;;11.90;7.47;;;12.10;99.90;;;;;;6240813;22;20176;-67
2023/05/06 07:59:54;;;;;;;9.32;6.93;;;12.00;99.90;;;;;;6237910;22;20192;-66
2023/05/06 08:02:21;;;;;;;8.85;6.55;;;12.10;99.90;;;;;;6217258;22;20200;-67
2023/05/06 08:04:48;;;;;;;8.98;6.70;;;12.10;99.90;;;;;;6237948;22;20255;-67
2023/05/06 08:07:15;;;;;;;12.52;6.97;;;12.20;99.90;;;;;;6220933;22;20469;-67
2023/05/06 08:09:42;;;;;;;11.10;7.45;;;12.20;99.90;;;;;;6236581;22;20200;-67
2023/05/06 08:12:09;;;;;;;11.27;7.65;;;12.20;99.90;;;;;;6237992;22;20184;-67
2023/05/06 08:14:37;;;;;;;14.18;7.43;;;12.10;99.90;;;;;;6230753;22;20519;-67
2023/05/06 08:17:04;;;;;;;10.57;6.82;;;12.10;99.90;;;;;;6231795;22;20192;-66
2023/05/06 08:19:31;;;;;;;10.57;7.43;;;12.10;99.90;;;;;;6236278;22;20173;-67
2023/05/06 08:21:58;;;;;;;9.98;6.88;;;12.20;99.90;;;;;;6224859;22;20202;-67
2023/05/06 08:24:25;;;;;;;15.55;8.38;;;12.10;99.90;;;;;;6245734;22;20674;-66
2023/05/06 08:26:52;;;;;;;12.48;8.13;;;12.20;99.90;;;;;;6232196;22;20684;-67
2023/05/06 08:29:19;;;;;;;10.02;7.47;;;12.30;99.90;;;;;;6238925;22;20188;-67
2023/05/06 08:31:47;;;;;;;10.15;7.50;;;12.40;99.90;;;;;;6247871;22;20176;-67
2023/05/06 08:34:17;;;;;;;10.82;7.60;;;12.40;99.90;;;;;;6236658;22;20993;-67
2023/05/06 08:36:44;;;;;;;9.85;7.00;;;12.40;99.90;;;;;;6243846;22;21007;-67
2023/05/06 08:39:11;;;;;;;10.60;7.30;;;12.50;99.90;;;;;;6213103;22;20187;-67
2023/05/06 08:41:39;;;;;;;9.60;7.35;;;12.60;99.90;;;;;;6245599;22;20172;-67
2023/05/06 08:44:08;;;;;;;8.07;7.10;;;12.60;99.90;;;;;;6228507;22;20472;-67
2023/05/06 08:46:35;;;;;;;11.10;7.40;;;12.60;99.90;;;;;;6243541;22;21171;-67
2023/05/06 08:49:03;;;;;;;9.63;7.13;;;12.70;99.90;;;;;;6231830;22;20203;-67
2023/05/06 08:51:32;;;;;;;11.90;6.95;;;12.70;99.90;;;;;;6248549;22;20189;-67
2023/05/06 08:54:01;;;;;;;10.32;7.30;;;12.70;99.90;;;;;;6217249;22;20602;-67
2023/05/06 08:56:32;;;;;;;11.10;6.90;;;12.80;99.90;;;;;;6247879;22;20941;-66
2023/05/06 08:59:00;;;;;;;10.32;6.95;;;12.80;99.90;;;;;;6218956;22;20203;-67
2023/05/06 09:01:27;;;;;;;8.93;7.00;;;12.80;99.90;;;;;;6246136;22;20956;-68
2023/05/06 09:03:55;;;;;;;8.93;7.13;;;12.80;99.90;;;;;;6239649;22;20219;-67
2023/05/06 09:06:23;;;;;;;10.93;7.72;;;12.80;99.90;;;;;;6226583;22;20196;-67
2023/05/06 09:08:50;;;;;;;9.10;6.82;;;12.80;99.90;;;;;;6216628;22;20250;-67
2023/05/06 09:11:26;;;;;;;12.10;7.35;;;12.80;99.90;;;;;;6240238;22;20970;-67
2023/05/06 09:14:08;;;;;;;9.43;6.70;;;12.90;99.90;;;;;;6239538;22;20270;-67
2023/05/06 09:16:35;;;;;;;9.88;7.30;;;13.00;99.90;;;;;;6220949;22;20196;-67
2023/05/06 09:19:02;;;;;;;10.05;6.82;;;13.10;99.90;;;;;;6241116;22;20206;-67
2023/05/06 09:21:33;;;;;;;11.25;6.95;;;13.20;99.90;;;;;;6220241;22;20196;-66
2023/05/06 09:24:01;;;;;;;13.43;6.43;;;13.10;99.90;;;;;;6225448;22;20200;-67
2023/05/06 09:26:29;;;;;;;12.82;7.40;;;13.10;99.90;;;;;;6236430;22;20780;-67
2023/05/06 09:28:57;;;;;;;9.15;6.90;;;13.30;99.90;;;;;;6216959;22;20283;-67
2023/05/06 09:31:24;;;;;;;9.02;7.05;;;13.40;99.90;;;;;;6236324;22;20172;-67
2023/05/06 09:33:51;;;;;;;10.50;7.75;;;13.40;99.90;;;;;;6251294;22;20180;-67
2023/05/06 09:36:18;;;;;;;9.27;7.80;;;13.40;99.90;;;;;;6240864;22;20627;-67
2023/05/06 09:38:47;;;;;;;9.13;6.97;;;13.50;99.90;;;;;;6229387;22;20200;-67
2023/05/06 09:41:15;;;;;;;11.70;8.07;;;13.60;99.90;;;;;;6243576;22;20196;-67
2023/05/06 09:43:45;;;;;;;10.65;7.32;;;13.60;99.90;;;;;;6247906;22;20832;-67
2023/05/06 09:46:12;;;;;;;10.45;7.90;;;13.60;99.90;;;;;;6227763;22;20172;-67
2023/05/06 09:48:40;;;;;;;8.15;7.20;;;13.50;99.90;;;;;;6242618;22;20188;-67
2023/05/06 09:51:07;;;;;;;8.65;7.15;;;13.50;99.90;;;;;;6241365;22;20192;-67
2023/05/06 09:53:36;;;;;;;10.77;7.38;;;13.50;99.90;;;;;;6242345;22;20192;-67
2023/05/06 09:56:05;;;;;;;11.20;8.23;;;13.60;99.90;;;;;;6216798;22;20508;-67
2023/05/06 09:58:33;;;;;;;10.52;7.63;;;13.70;99.90;;;;;;6238677;22;20172;-67
2023/05/06 10:01:01;;;;;;;9.88;7.28;;;13.80;99.90;;;;;;6239087;22;20168;-67
2023/05/06 10:03:28;;;;;;;9.90;7.68;;;13.80;99.90;;;;;;6202432;22;20263;-67
2023/05/06 10:05:58;;;;;;;15.88;8.40;;;13.80;99.90;;;;;;6239601;22;20195;-66
2023/05/06 10:08:25;;;;;;;9.88;7.10;;;13.80;99.90;;;;;;6246253;22;20219;-67
2023/05/06 10:10:53;;;;;;;13.30;7.38;;;13.90;99.90;;;;;;6221311;22;20192;-66
2023/05/06 10:13:23;;;;;;;11.18;7.90;;;14.00;99.90;;;;;;6247428;22;20199;-67
2023/05/06 10:15:51;;;;;;;9.20;6.68;;;13.90;99.90;;;;;;6227497;22;20183;-67
2023/05/06 10:18:19;;;;;;;12.70;7.47;;;14.00;99.90;;;;;;6240717;22;20274;-67
2023/05/06 10:20:48;;;;;;;12.90;7.80;;;14.10;99.90;;;;;;6227522;22;20192;-67
2023/05/06 10:23:24;;;;;;;14.30;7.68;;;14.10;99.90;;;;;;6227598;22;20191;-66
2023/05/06 10:25:53;;;;;;;10.75;7.72;;;14.10;99.90;;;;;;6225609;22;20672;-66
2023/05/06 10:28:22;;;;;;;11.75;7.90;;;14.20;99.90;;;;;;6227912;22;20191;-66
2023/05/06 10:30:51;;;;;;;10.55;7.65;;;14.30;99.90;;;;;;6217881;22;20544;-67
2023/05/06 10:33:19;;;;;;;8.10;6.82;;;14.50;99.90;;;;;;6228612;22;20175;-67
2023/05/06 10:35:52;;;;;;;9.25;6.60;;;14.50;99.90;;;;;;6225874;22;20186;-66
2023/05/06 10:38:24;;;;;;;8.35;6.53;;;14.70;83.80;;;;;;6230620;22;20172;-66
2023/05/06 10:40:53;;;;;;;11.68;6.90;;;14.90;84.50;;;;;;6225373;22;20204;-66
2023/05/06 10:43:24;;;;;;;14.07;6.80;;;15.00;75.90;;;;;;6208295;22;20203;-66
2023/05/06 10:46:09;;;;;;;10.43;7.07;;;14.90;66.00;;;;;;6229942;22;20864;-67
2023/05/06 10:48:37;;;;;;;7.60;6.18;;;14.80;57.50;;;;;;6204281;22;20179;-68
2023/05/06 10:51:24;;;;;;;8.10;5.90;;;14.90;59.40;;;;;;6223395;22;20192;-67
2023/05/06 10:54:01;;;;;;;10.77;6.25;;;15.00;64.90;;;;;;6222991;22;20238;-67
2023/05/06 10:56:29;;;;;;;8.43;6.65;;;15.00;54.20;;;;;;6218279;22;20861;-67
2023/05/06 10:59:01;;;;;;;9.57;7.00;;;15.00;53.60;;;;;;6222336;22;20671;-67
2023/05/06 11:01:27;;;;;;;7.95;6.28;;;14.90;53.70;;;;;;6222907;22;20199;-67
2023/05/06 11:03:55;;;;;;;9.52;6.90;;;15.00;56.30;;;;;;6219820;22;20208;-67
2023/05/06 11:06:36;;;;;;;10.90;6.55;;;14.90;53.60;;;;;;6203290;22;20196;-67
2023/05/06 11:09:04;;;;;;;7.53;6.00;;;14.90;50.70;;;;;;6224792;22;20723;-67
2023/05/06 11:12:01;;;;;;;10.23;6.78;;;14.90;50.30;;;;;;6221253;22;20196;-67
2023/05/06 11:14:31;;;;;;;8.45;6.10;;;15.10;49.00;;;;;;6205829;22;20192;-67
2023/05/06 11:17:00;;;;;;;8.85;6.05;;;15.10;38.80;;;;;;6224274;22;20271;-67
2023/05/06 11:19:28;;;;;;;10.48;6.40;;;15.10;36.20;;;;;;6209591;22;20192;-67
2023/05/06 11:21:57;;;;;;;9.73;6.95;;;15.20;42.30;;;;;;6234146;22;20192;-67
2023/05/06 11:24:28;;;;;;;8.23;6.18;;;15.10;34.20;;;;;;6216438;22;20223;-67
2023/05/06 11:26:55;;;;;;;8.63;6.55;;;15.10;36.20;;;;;;6223771;22;20180;-67
2023/05/06 11:29:23;;;;;;;8.75;6.10;;;15.10;25.00;;;;;;6217573;22;20192;-67
2023/05/06 11:31:52;;;;;;;8.63;5.57;;;15.20;33.50;;;;;;6231913;22;20195;-66
2023/05/06 11:34:27;;;;;;;10.43;6.38;;;15.50;46.40;;;;;;6222925;22;20632;-67
2023/05/06 11:37:02;;;;;;;8.05;5.25;;;15.40;21.00;;;;;;6229860;22;20301;-67
2023/05/06 11:39:31;;;;;;;11.63;5.75;;;15.40;20.50;;;;;;6233945;22;20183;-66
2023/05/06 11:42:03;;;;;;;9.30;6.40;;;15.40;9.80;;;;;;6242577;22;20179;-66
2023/05/06 11:44:32;;;;;;;8.50;5.57;;;15.40;6.20;;;;;;6207365;22;20208;-67
2023/05/06 11:47:04;;;;;;;8.70;6.38;;;15.30;1.00;;;;;;6245122;22;20172;-66
2023/05/06 11:49:35;;;;;;;10.85;6.47;;;15.30;1.00;;;;;;6232487;22;20786;-67
2023/05/06 11:52:03;;;;;;;8.93;6.18;;;15.30;1.10;;;;;;6225120;22;20179;-66
2023/05/06 11:54:34;;;;;;;9.02;5.30;;;15.30;2.80;;;;;;6226275;22;20214;-67
2023/05/06 11:57:02;;;;;;;8.65;5.75;;;15.40;6.50;;;;;;6239782;22;20199;-67
2023/05/06 11:59:31;;;;;;;7.07;4.95;;;15.40;1.00;;;;;;6203649;22;20180;-67
2023/05/06 12:02:01;;;;;;;6.85;5.05;;;15.50;1.00;;;;;;6247399;22;20199;-66
2023/05/06 12:04:36;;;;;;;6.32;5.68;;;15.50;1.00;;;;;;6220947;22;20432;-67
2023/05/06 12:07:06;;;;;;;7.72;4.93;;;15.40;1.00;;;;;;6234291;22;20176;-67
2023/05/06 12:09:35;;;;;;;6.97;5.13;;;15.50;1.00;;;;;;6221594;22;20369;-66
2023/05/06 12:12:03;;;;;;;9.85;6.03;;;15.60;1.00;;;;;;6235822;22;20176;-67
2023/05/06 12:14:30;;;;;;;8.27;6.63;;;15.60;1.00;;;;;;6195783;22;20183;-66
2023/05/06 12:16:58;;;;;;;7.53;5.65;;;15.70;1.00;;;;;;6244357;22;20180;-66
2023/05/06 12:19:26;;;;;;;6.00;5.40;;;15.70;1.00;;;;;;6224257;22;20371;-67
2023/05/06 12:21:53;;;;;;;7.07;5.35;;;15.70;1.00;;;;;;6223841;22;20191;-67
2023/05/06 12:24:28;;;;;;;9.75;5.70;;;15.70;99.90;;;;;;6229791;22;20712;-66
2023/05/06 12:26:55;;;;;;;7.63;5.97;;;15.70;99.90;;;;;;6225088;22;20179;-66
2023/05/06 12:29:22;;;;;;;7.40;5.63;;;15.70;1.00;;;;;;6225833;22;20196;-67
2023/05/06 12:31:49;;;;;;;8.32;5.28;;;15.80;1.00;;;;;;6219418;22;20206;-67
2023/05/06 12:34:18;;;;;;;10.82;5.90;;;15.80;1.00;;;;;;6232986;22;20533;-66
2023/05/06 12:36:46;;;;;;;6.05;4.95;;;15.80;1.00;;;;;;6233304;22;20687;-66
2023/05/06 12:39:16;;;;;;;10.52;6.15;;;15.80;1.00;;;;;;6219715;22;20192;-66
2023/05/06 12:41:46;;;;;;;8.40;5.70;;;15.80;99.90;;;;;;6221384;22;20195;-66
2023/05/06 12:44:33;;;;;;;6.80;5.15;;;15.90;99.90;;;;;;6235209;22;20219;-67
2023/05/06 12:47:01;;;;;;;8.60;5.60;;;15.90;99.90;;;;;;6224510;22;20192;-66